createdAt,value
2018-05-15T00:00:30.219Z,207.03
2018-05-15T00:03:00.394Z,200.30
2018-05-15T00:05:30.566Z,224.07
2018-05-15T00:17:31.060Z,327.30
2018-05-15T00:23:11.018Z,511.03
2018-05-15T00:28:50.820Z,619.97
2018-05-15T00:31:21.169Z,693.23
2018-05-15T00:34:09.776Z,992.50
2018-05-15T00:36:39.911Z,830.80
2018-05-15T00:45:30.673Z,857.00
2018-05-15T00:51:29.177Z,887.07
2018-05-15T00:53:59.380Z,957.47
2018-05-15T00:56:29.554Z,643.30
2018-05-15T00:59:19.149Z,689.30
2018-05-15T01:01:49.020Z,711.73
2018-05-15T01:04:19.223Z,580.67
2018-05-15T01:06:49.467Z,574.00
2018-05-15T01:15:40.221Z,814.97
2018-05-15T01:18:10.831Z,779.20
2018-05-15T01:30:08.548Z,562.10
2018-05-15T01:38:58.618Z,657.93
2018-05-15T01:41:29.270Z,574.10
2018-05-15T01:44:18.731Z,511.47
2018-05-15T01:49:59.232Z,625.20
2018-05-15T01:52:29.742Z,611.33
2018-05-15T01:54:59.956Z,383.20
2018-05-15T01:57:30.192Z,435.47
2018-05-15T02:03:10.749Z,521.43
2018-05-15T02:05:40.903Z,396.50
2018-05-15T02:08:10.988Z,596.73
2018-05-15T02:10:41.200Z,537.83
2018-05-15T02:13:11.352Z,415.10
2018-05-15T02:16:00.885Z,595.20
2018-05-15T02:18:31.269Z,245.40
2018-05-15T02:21:01.408Z,233.20
2018-05-15T02:33:10.448Z,142.50
2018-05-15T02:35:40.660Z,104.97
2018-05-15T02:38:10.886Z,104.97
2018-05-15T02:47:02.483Z,101.43
2018-05-15T02:49:32.878Z,108.77
2018-05-15T02:52:03.390Z,148.33
2018-05-15T02:57:44.120Z,114.27
2018-05-15T03:00:14.514Z,134.80
2018-05-15T03:02:45.070Z,138.77
2018-05-15T03:05:15.202Z,146.07
2018-05-15T03:08:04.634Z,155.07
2018-05-15T03:10:34.859Z,180.87
2018-05-15T03:13:05.064Z,178.50
2018-05-15T03:22:10.775Z,183.70
2018-05-15T03:24:59.155Z,213.17
2018-05-15T03:27:29.280Z,244.73
2018-05-15T03:29:59.508Z,219.30
2018-05-15T03:32:29.832Z,233.10
2018-05-15T03:38:28.774Z,191.60
2018-05-15T03:40:59.295Z,162.23
2018-05-15T03:43:29.571Z,139.07
2018-05-15T03:45:59.384Z,125.90
2018-05-15T03:48:29.849Z,80.83
2018-05-15T03:51:00.116Z,111.07
2018-05-15T03:53:30.267Z,105.93
2018-05-15T03:56:00.915Z,94.23
2018-05-15T03:58:31.149Z,78.43
2018-05-15T04:01:18.064Z,86.20
2018-05-15T04:04:04.813Z,79.53
2018-05-15T04:06:51.423Z,88.77
2018-05-15T04:09:23.432Z,73.10
2018-05-15T04:11:53.651Z,85.77
2018-05-15T04:14:23.823Z,92.40
2018-05-15T04:16:53.918Z,75.63
2018-05-15T04:19:24.152Z,73.77
2018-05-15T04:21:54.524Z,80.30
2018-05-15T04:24:24.774Z,88.20
2018-05-15T04:26:55.003Z,88.83
2018-05-15T04:29:24.816Z,137.43
2018-05-15T04:31:55.251Z,99.30
2018-05-15T04:34:25.493Z,101.20
2018-05-15T04:36:55.946Z,102.43
2018-05-15T04:39:26.164Z,115.73
2018-05-15T04:41:56.457Z,69.37
2018-05-15T04:44:26.656Z,69.23
2018-05-15T04:46:58.422Z,60.63
2018-05-15T04:49:28.934Z,58.47
2018-05-15T04:51:59.289Z,68.60
2018-05-15T04:54:29.937Z,65.03
2018-05-15T04:57:00.063Z,73.97
2018-05-15T04:59:30.009Z,64.93
2018-05-15T05:02:01.045Z,70.97
2018-05-15T05:04:31.111Z,55.13
2018-05-15T05:07:01.300Z,53.13
2018-05-15T05:09:31.442Z,51.47
2018-05-15T05:12:01.581Z,57.47
2018-05-15T05:14:31.803Z,47.53
2018-05-15T05:17:02.017Z,31.50
2018-05-15T05:19:32.354Z,28.70
2018-05-15T05:22:02.574Z,25.77
2018-05-15T05:24:32.762Z,22.10
2018-05-15T05:27:03.041Z,22.50
2018-05-15T05:29:33.095Z,18.60
2018-05-15T05:32:02.928Z,22.33
2018-05-15T05:34:33.333Z,19.60
2018-05-15T05:37:03.510Z,18.57
2018-05-15T05:39:33.835Z,17.87
2018-05-15T05:42:04.111Z,17.67
2018-05-15T05:44:34.551Z,18.87
2018-05-15T05:47:04.373Z,18.73
2018-05-15T05:49:34.516Z,18.03
2018-05-15T05:52:04.404Z,19.97
2018-05-15T05:54:34.710Z,19.73
2018-05-15T05:57:04.903Z,20.70
2018-05-15T05:59:35.117Z,24.17
2018-05-15T06:02:04.982Z,21.30
2018-05-15T06:04:35.449Z,21.67
2018-05-15T06:07:05.286Z,25.63
2018-05-15T06:09:36.213Z,21.50
2018-05-15T06:12:05.399Z,20.07
2018-05-15T06:14:35.752Z,28.83
2018-05-15T06:17:06.128Z,23.90
2018-05-15T06:19:36.296Z,23.80
2018-05-15T06:22:06.442Z,23.70
2018-05-15T06:24:36.871Z,24.67
2018-05-15T06:27:07.103Z,23.37
2018-05-15T06:29:37.237Z,22.13
2018-05-15T06:32:07.333Z,25.70
2018-05-15T06:34:37.452Z,25.20
2018-05-15T06:37:07.235Z,32.07
2018-05-15T06:39:37.599Z,32.73
2018-05-15T06:42:07.436Z,34.30
2018-05-15T06:44:37.992Z,79.90
2018-05-15T06:47:08.087Z,68.17
2018-05-15T06:49:46.862Z,43.97
2018-05-15T06:52:20.411Z,36.03
2018-05-15T06:54:50.675Z,355.27
2018-05-15T06:57:20.917Z,67.33
2018-05-15T06:59:51.434Z,34.70
2018-05-15T07:02:22.461Z,32.40
2018-05-15T07:04:52.639Z,35.03
2018-05-15T07:07:23.306Z,28.93
2018-05-15T07:09:55.917Z,25.37
2018-05-15T07:12:26.169Z,27.10
2018-05-15T07:14:56.220Z,31.17
2018-05-15T07:20:03.635Z,26.07
2018-05-15T07:22:33.879Z,27.13
2018-05-15T07:25:03.928Z,26.13
2018-05-15T07:27:34.252Z,31.10
2018-05-15T07:30:04.386Z,32.27
2018-05-15T07:32:34.604Z,29.77
2018-05-15T07:35:05.239Z,30.93
2018-05-15T07:37:36.172Z,33.00
2018-05-15T07:40:06.361Z,31.77
2018-05-15T07:42:36.506Z,29.33
2018-05-15T07:45:06.920Z,31.30
2018-05-15T07:47:37.818Z,28.30
2018-05-15T07:50:08.011Z,32.20
2018-05-15T07:52:38.275Z,38.17
2018-05-15T07:55:08.689Z,28.90
2018-05-15T07:57:38.791Z,30.13
2018-05-15T08:00:08.926Z,23.40
2018-05-15T08:02:39.418Z,29.73
2018-05-15T08:05:10.322Z,25.07
2018-05-15T08:07:40.450Z,25.43
2018-05-15T08:10:10.593Z,23.63
2018-05-15T08:12:40.784Z,19.13
2018-05-15T08:15:11.236Z,19.23
2018-05-15T08:17:41.640Z,22.30
2018-05-15T08:20:11.775Z,20.73
2018-05-15T08:22:42.679Z,20.17
2018-05-15T08:25:13.041Z,18.07
2018-05-15T08:27:43.128Z,19.50
2018-05-15T08:30:13.437Z,23.07
2018-05-15T08:32:43.536Z,20.33
2018-05-15T08:35:13.664Z,19.07
2018-05-15T08:37:43.824Z,20.80
2018-05-15T08:40:13.932Z,18.83
2018-05-15T08:42:44.543Z,16.50
2018-05-15T08:45:15.276Z,14.23
2018-05-15T08:47:46.156Z,15.60
2018-05-15T08:50:17.020Z,17.50
2018-05-15T08:52:48.501Z,17.35
2018-05-15T08:55:19.167Z,12.73
2018-05-15T08:57:50.049Z,15.68
2018-05-15T09:00:20.932Z,12.93
2018-05-15T09:02:51.612Z,15.88
2018-05-15T09:05:22.751Z,13.55
2018-05-15T09:07:53.437Z,12.80
2018-05-15T09:10:24.319Z,15.35
2018-05-15T09:12:55.079Z,14.35
2018-05-15T09:15:25.774Z,12.55
2018-05-15T09:17:57.405Z,14.75
2018-05-15T09:20:28.074Z,13.15
2018-05-15T09:22:58.768Z,13.52
2018-05-15T09:25:30.233Z,12.73
2018-05-15T09:28:01.692Z,12.70
2018-05-15T09:30:32.541Z,10.63
2018-05-15T09:33:04.287Z,12.18
2018-05-15T09:35:34.962Z,18.45
2018-05-15T09:38:05.839Z,13.35
2018-05-15T09:40:36.360Z,10.82
2018-05-15T09:43:07.466Z,12.30
2018-05-15T09:45:37.994Z,11.85
2018-05-15T09:48:08.944Z,11.07
2018-05-15T09:50:39.636Z,11.52
2018-05-15T09:53:10.135Z,10.38
2018-05-15T09:55:41.568Z,11.00
2018-05-15T09:58:12.252Z,12.10
2018-05-15T10:00:43.902Z,13.68
2018-05-15T10:03:14.566Z,11.12
2018-05-15T10:05:45.257Z,11.55
2018-05-15T10:08:16.136Z,11.40
2018-05-15T10:10:47.554Z,14.65
2018-05-15T10:13:18.786Z,13.25
2018-05-15T10:15:49.437Z,11.93
2018-05-15T10:18:20.867Z,10.48
2018-05-15T10:20:51.734Z,11.57
2018-05-15T10:23:22.389Z,10.57
2018-05-15T10:25:52.720Z,12.43
2018-05-15T10:28:23.587Z,14.50
2018-05-15T10:30:54.267Z,11.75
2018-05-15T10:33:24.919Z,14.55
2018-05-15T10:35:56.742Z,14.80
2018-05-15T10:38:28.393Z,10.85
2018-05-15T10:40:59.308Z,10.35
2018-05-15T10:43:30.230Z,9.77
2018-05-15T10:46:01.088Z,10.80
2018-05-15T10:48:31.943Z,9.77
2018-05-15T10:51:02.599Z,11.23
2018-05-15T10:53:33.468Z,16.92
2018-05-15T10:56:03.962Z,10.30
2018-05-15T10:58:34.903Z,11.50
2018-05-15T11:01:05.845Z,10.98
2018-05-15T11:03:36.491Z,11.18
2018-05-15T11:06:07.417Z,11.70
2018-05-15T11:08:38.267Z,10.18
2018-05-15T11:11:09.897Z,12.00
2018-05-15T11:13:40.756Z,14.25
2018-05-15T11:16:11.408Z,13.45
2018-05-15T11:18:42.057Z,11.07
2018-05-15T11:21:29.473Z,11.90
2018-05-15T18:16:14.799Z,10.43
2018-05-15T18:18:44.974Z,10.97
2018-05-15T18:21:17.537Z,13.60
2018-05-15T18:23:49.021Z,11.93
2018-05-15T18:26:18.643Z,10.17
2018-05-15T18:28:48.841Z,9.57
2018-05-15T18:31:19.098Z,11.13
2018-05-15T18:33:50.252Z,9.07
2018-05-15T18:36:20.503Z,8.50
2018-05-15T18:38:50.839Z,8.53
2018-05-15T18:41:21.185Z,8.73
2018-05-15T18:43:51.378Z,9.47
2018-05-15T18:46:21.744Z,9.33
2018-05-15T18:48:52.049Z,8.50
2018-05-15T18:51:22.624Z,7.80
2018-05-15T18:53:53.004Z,9.50
2018-05-15T18:56:23.432Z,7.23
2018-05-15T18:58:54.029Z,6.90
2018-05-15T19:01:24.780Z,9.10
2018-05-15T19:04:13.308Z,7.90
2018-05-15T19:07:10.099Z,8.97
2018-05-15T19:12:31.183Z,7.03
2018-05-15T19:18:12.586Z,6.90
2018-05-15T19:20:42.771Z,7.93
2018-05-15T19:29:35.180Z,6.20
2018-05-15T19:35:08.032Z,7.23
2018-05-15T19:46:53.123Z,6.87
2018-05-15T19:49:23.381Z,11.80
2018-05-15T19:51:54.487Z,8.23
2018-05-15T19:54:43.663Z,9.00
2018-05-15T19:57:14.834Z,6.80
2018-05-15T19:59:45.095Z,8.47
2018-05-15T20:02:16.091Z,9.33
2018-05-15T20:04:47.100Z,8.67
2018-05-15T20:07:17.299Z,10.37
2018-05-15T20:09:47.681Z,7.93
2018-05-15T20:12:17.884Z,10.63
2018-05-15T20:14:48.095Z,7.90
2018-05-15T20:17:36.443Z,8.80
2018-05-15T20:20:05.575Z,8.20
2018-05-15T20:22:35.775Z,12.90
2018-05-15T20:25:05.995Z,9.10
2018-05-15T20:27:36.192Z,12.03
2018-05-15T20:33:37.222Z,12.60
2018-05-15T20:36:07.377Z,8.43
2018-05-15T20:38:37.906Z,12.23
2018-05-15T20:44:33.826Z,7.97
2018-05-15T20:47:04.026Z,13.60
2018-05-15T20:49:50.771Z,7.83
2018-05-15T20:52:39.814Z,8.27
2018-05-15T20:55:10.359Z,8.60
2018-05-15T20:57:40.522Z,10.73
2018-05-15T21:03:39.292Z,8.90
2018-05-15T21:06:09.600Z,11.23
2018-05-15T21:08:39.832Z,10.73
2018-05-15T21:11:10.079Z,9.23
2018-05-15T21:13:40.518Z,8.07
2018-05-15T21:16:11.274Z,8.07
2018-05-15T21:21:49.760Z,9.60
2018-05-15T21:24:20.241Z,12.47
2018-05-15T21:30:00.811Z,8.40
2018-05-15T21:32:49.408Z,8.07
2018-05-15T21:35:19.631Z,8.03
2018-05-15T21:37:49.806Z,8.90
2018-05-15T21:40:20.273Z,8.23
2018-05-15T21:42:50.445Z,8.10
2018-05-15T21:51:39.591Z,10.23
2018-05-15T21:57:20.198Z,10.03
2018-05-15T22:00:08.614Z,9.93
2018-05-15T22:02:39.079Z,8.67
2018-05-15T22:05:28.014Z,8.83
2018-05-15T22:07:58.147Z,8.33
2018-05-15T22:10:44.789Z,9.10
2018-05-15T22:13:32.903Z,9.07
2018-05-15T22:16:30.761Z,12.93
2018-05-15T22:19:19.044Z,8.97
2018-05-15T22:24:59.682Z,9.90
2018-05-15T22:30:18.547Z,7.83
2018-05-15T22:33:07.112Z,10.17
2018-05-15T22:35:37.253Z,8.77
2018-05-15T22:38:07.385Z,7.93
2018-05-15T22:40:56.105Z,8.20
2018-05-15T22:43:26.537Z,11.70
2018-05-15T22:45:56.784Z,9.20
2018-05-15T22:48:26.967Z,8.87
2018-05-15T22:50:57.484Z,10.10
2018-05-15T22:53:45.796Z,7.00
2018-05-15T22:56:42.562Z,10.47
2018-05-15T22:59:30.701Z,8.13
2018-05-15T23:02:00.815Z,8.53
2018-05-15T23:04:49.811Z,8.80
2018-05-15T23:07:38.270Z,9.33
2018-05-15T23:16:28.530Z,7.30
2018-05-15T23:19:17.012Z,6.63
2018-05-15T23:25:16.039Z,14.30
2018-05-15T23:27:46.246Z,7.80
2018-05-15T23:30:33.096Z,9.67
2018-05-15T23:36:31.670Z,9.83
2018-05-15T23:44:58.287Z,7.63
2018-05-15T23:47:46.832Z,8.90
2018-05-15T23:53:14.865Z,5.80
2018-05-15T23:55:47.041Z,6.57
